createdAt,value
2023-01-30T00:01:32.885Z,5.00
2023-01-30T00:04:00.543Z,5.00
2023-01-30T00:06:28.109Z,5.00
2023-01-30T00:08:55.338Z,5.10
2023-01-30T00:11:23.306Z,5.10
2023-01-30T00:13:51.165Z,5.20
2023-01-30T00:16:18.769Z,5.20
2023-01-30T00:18:46.139Z,5.20
2023-01-30T00:21:14.638Z,5.20
2023-01-30T00:23:42.536Z,5.20
2023-01-30T00:26:11.953Z,5.20
2023-01-30T00:28:40.311Z,5.30
2023-01-30T00:31:08.619Z,5.30
2023-01-30T00:33:37.167Z,5.30
2023-01-30T00:36:04.978Z,5.40
2023-01-30T00:38:32.274Z,5.40
2023-01-30T00:40:59.440Z,5.40
2023-01-30T00:43:45.226Z,5.50
2023-01-30T00:46:43.195Z,5.50
2023-01-30T00:49:10.540Z,5.50
2023-01-30T00:51:37.766Z,5.50
2023-01-30T00:54:05.573Z,5.50
2023-01-30T00:56:32.786Z,5.60
2023-01-30T00:59:00.224Z,5.60
2023-01-30T01:01:27.632Z,5.60
2023-01-30T01:03:55.081Z,5.60
2023-01-30T01:06:22.406Z,5.60
2023-01-30T01:08:49.711Z,5.60
2023-01-30T01:11:24.232Z,5.60
2023-01-30T01:13:56.767Z,5.60
2023-01-30T01:16:25.061Z,5.60
2023-01-30T01:18:52.577Z,5.70
2023-01-30T01:21:21.215Z,5.70
2023-01-30T01:23:59.554Z,5.70
2023-01-30T01:26:27.009Z,5.70
2023-01-30T01:28:56.136Z,5.70
2023-01-30T01:31:24.321Z,5.80
2023-01-30T01:33:52.089Z,5.80
2023-01-30T01:36:42.387Z,5.80
2023-01-30T01:39:06.693Z,5.80
2023-01-30T01:41:34.008Z,5.80
2023-01-30T01:44:05.078Z,5.80
2023-01-30T01:46:46.027Z,5.80
2023-01-30T01:49:27.905Z,5.80
2023-01-30T01:52:03.725Z,5.80
2023-01-30T01:54:40.125Z,5.80
2023-01-30T01:57:14.603Z,5.90
2023-01-30T01:59:52.917Z,5.80
2023-01-30T02:02:20.576Z,5.90
2023-01-30T02:05:01.892Z,5.90
2023-01-30T02:07:50.496Z,5.90
2023-01-30T02:10:24.926Z,5.90
2023-01-30T02:12:52.130Z,5.90
2023-01-30T02:15:21.955Z,5.90
2023-01-30T02:17:49.208Z,5.90
2023-01-30T02:20:50.570Z,5.90
2023-01-30T02:23:47.283Z,5.90
2023-01-30T02:26:37.505Z,5.90
2023-01-30T02:29:36.736Z,5.90
2023-01-30T02:32:10.299Z,5.90
2023-01-30T02:35:00.564Z,6.00
2023-01-30T02:37:36.293Z,6.00
2023-01-30T02:40:28.680Z,6.00
2023-01-30T02:43:26.443Z,6.00
2023-01-30T02:45:56.575Z,6.00
2023-01-30T02:48:30.582Z,6.00
2023-01-30T02:51:03.191Z,6.00
2023-01-30T02:53:35.869Z,5.90
2023-01-30T02:56:04.898Z,6.00
2023-01-30T02:58:40.046Z,6.00
2023-01-30T03:01:26.930Z,6.00
2023-01-30T03:04:08.587Z,6.00
2023-01-30T03:07:06.011Z,6.00
2023-01-30T03:09:57.365Z,6.00
2023-01-30T03:12:43.030Z,6.00
2023-01-30T03:15:20.078Z,6.00
2023-01-30T03:17:48.308Z,6.00
2023-01-30T03:20:19.905Z,6.00
2023-01-30T03:22:47.682Z,6.00
2023-01-30T03:25:21.718Z,6.00
2023-01-30T03:27:53.017Z,6.00
2023-01-30T03:30:20.750Z,6.00
2023-01-30T03:32:49.714Z,6.00
2023-01-30T03:35:17.992Z,6.00
2023-01-30T03:37:46.690Z,6.00
2023-01-30T03:40:16.081Z,6.00
2023-01-30T03:42:44.665Z,6.00
2023-01-30T03:45:12.214Z,6.00
2023-01-30T03:47:39.575Z,6.10
2023-01-30T03:50:07.994Z,6.10
2023-01-30T03:52:36.360Z,6.10
2023-01-30T03:55:04.889Z,6.10
2023-01-30T03:57:32.098Z,6.10
2023-01-30T04:00:00.137Z,6.10
2023-01-30T04:02:27.513Z,6.10
2023-01-30T04:04:56.300Z,6.10
2023-01-30T04:07:23.782Z,6.10
2023-01-30T04:09:51.969Z,6.10
2023-01-30T04:12:20.871Z,6.20
2023-01-30T04:14:54.519Z,6.20
2023-01-30T04:17:40.466Z,6.20
2023-01-30T04:20:34.103Z,6.20
2023-01-30T04:23:02.173Z,6.20
2023-01-30T04:25:29.383Z,6.20
2023-01-30T04:27:56.763Z,6.20
2023-01-30T04:30:29.148Z,6.20
2023-01-30T04:33:13.224Z,6.30
2023-01-30T04:35:40.437Z,6.30
2023-01-30T04:38:08.599Z,6.30
2023-01-30T04:40:37.145Z,6.30
2023-01-30T04:43:04.420Z,6.30
2023-01-30T04:46:00.682Z,6.30
2023-01-30T04:48:29.070Z,6.30
2023-01-30T04:50:58.959Z,6.40
2023-01-30T04:53:26.557Z,6.40
2023-01-30T04:55:53.924Z,6.40
2023-01-30T04:58:22.160Z,6.40
2023-01-30T05:00:50.122Z,6.40
2023-01-30T05:03:17.455Z,6.40
2023-01-30T05:05:48.169Z,6.40
2023-01-30T05:08:16.275Z,6.40
2023-01-30T05:10:43.498Z,6.40
2023-01-30T05:13:10.803Z,6.40
2023-01-30T05:15:39.777Z,6.40
2023-01-30T05:18:07.022Z,6.50
2023-01-30T05:20:34.338Z,6.50
2023-01-30T05:23:01.566Z,6.50
2023-01-30T05:25:28.909Z,6.40
2023-01-30T05:27:57.104Z,6.40
2023-01-30T05:30:24.489Z,6.40
2023-01-30T05:32:51.792Z,6.40
2023-01-30T05:35:19.516Z,6.40
2023-01-30T05:37:51.035Z,6.40
2023-01-30T05:40:18.801Z,6.40
2023-01-30T05:42:45.991Z,6.40
2023-01-30T05:45:13.313Z,6.40
2023-01-30T05:47:40.687Z,6.40
2023-01-30T05:50:08.651Z,6.40
2023-01-30T05:52:35.869Z,6.50
2023-01-30T05:55:03.291Z,6.40
2023-01-30T05:57:30.518Z,6.40
2023-01-30T05:59:57.803Z,6.40
2023-01-30T06:02:25.102Z,6.40
2023-01-30T06:04:52.377Z,6.40
2023-01-30T06:07:19.625Z,6.40
2023-01-30T06:09:46.875Z,6.40
2023-01-30T06:12:14.211Z,6.40
2023-01-30T06:14:41.409Z,6.40
2023-01-30T06:17:08.837Z,6.40
2023-01-30T06:19:36.262Z,6.40
2023-01-30T06:22:04.018Z,6.40
2023-01-30T06:24:31.294Z,6.40
2023-01-30T06:26:59.754Z,6.50
2023-01-30T06:29:27.619Z,6.50
2023-01-30T06:31:54.949Z,6.50
2023-01-30T06:34:22.157Z,6.50
2023-01-30T06:36:49.492Z,6.50
2023-01-30T06:39:16.927Z,6.50
2023-01-30T06:41:44.269Z,6.50
2023-01-30T06:44:11.593Z,6.50
2023-01-30T06:46:38.816Z,6.50
2023-01-30T06:49:06.099Z,6.50
2023-01-30T06:51:33.398Z,6.50
2023-01-30T06:54:00.712Z,6.50
2023-01-30T06:56:27.860Z,6.50
2023-01-30T06:58:55.259Z,6.50
2023-01-30T07:01:22.539Z,6.50
2023-01-30T07:03:49.815Z,6.60
2023-01-30T07:06:17.127Z,6.60
2023-01-30T07:08:44.506Z,6.50
2023-01-30T07:11:12.105Z,6.60
2023-01-30T07:13:39.381Z,6.60
2023-01-30T07:16:07.059Z,6.60
2023-01-30T07:18:34.256Z,6.60
2023-01-30T07:21:01.513Z,6.60
2023-01-30T07:23:28.893Z,6.60
2023-01-30T07:25:56.543Z,6.60
2023-01-30T07:28:24.293Z,6.60
2023-01-30T07:30:52.990Z,6.60
2023-01-30T07:33:20.824Z,6.70
2023-01-30T07:35:48.173Z,6.70
2023-01-30T07:38:15.379Z,6.70
2023-01-30T07:40:42.790Z,6.70
2023-01-30T07:43:13.890Z,6.70
2023-01-30T07:45:46.978Z,6.70
2023-01-30T07:48:19.088Z,6.80
2023-01-30T07:50:46.969Z,6.80
2023-01-30T07:53:16.630Z,6.80
2023-01-30T07:55:44.586Z,6.80
2023-01-30T07:58:15.018Z,6.80
2023-01-30T08:00:42.757Z,6.90
2023-01-30T08:03:14.965Z,6.90
2023-01-30T08:05:43.377Z,6.90
2023-01-30T08:08:10.635Z,6.90
2023-01-30T08:10:37.831Z,6.90
2023-01-30T08:13:05.167Z,7.00
2023-01-30T08:15:33.481Z,7.00
2023-01-30T08:18:01.282Z,7.00
2023-01-30T08:20:28.834Z,7.10
2023-01-30T08:22:58.349Z,7.10
2023-01-30T08:25:25.754Z,7.10
2023-01-30T08:27:53.390Z,7.20
2023-01-30T08:30:22.009Z,7.20
2023-01-30T08:32:49.458Z,7.20
2023-01-30T08:35:16.985Z,7.20
2023-01-30T08:37:44.337Z,7.20
2023-01-30T08:40:12.259Z,7.30
2023-01-30T08:42:39.510Z,7.30
2023-01-30T08:45:07.515Z,7.40
2023-01-30T08:47:35.647Z,7.30
2023-01-30T08:50:04.140Z,7.30
2023-01-30T08:52:33.251Z,7.40
2023-01-30T08:55:00.780Z,7.30
2023-01-30T08:57:28.107Z,7.40
2023-01-30T08:59:55.345Z,7.40
2023-01-30T09:02:22.757Z,7.40
2023-01-30T09:04:50.094Z,7.50
2023-01-30T09:07:19.196Z,7.60
2023-01-30T09:09:46.447Z,7.70
2023-01-30T09:12:14.074Z,7.70
2023-01-30T09:14:41.405Z,7.70
2023-01-30T09:17:08.846Z,7.70
2023-01-30T09:19:37.197Z,7.70
2023-01-30T09:22:05.013Z,7.80
2023-01-30T09:24:32.313Z,7.80
2023-01-30T09:27:00.018Z,7.80
2023-01-30T09:29:28.100Z,7.80
2023-01-30T09:32:01.795Z,7.90
2023-01-30T09:34:29.200Z,7.90
2023-01-30T09:37:01.530Z,8.00
2023-01-30T09:39:30.295Z,8.10
2023-01-30T09:42:12.492Z,8.10
2023-01-30T09:44:59.032Z,8.10
2023-01-30T09:47:47.277Z,8.10
2023-01-30T09:50:16.942Z,8.10
2023-01-30T09:53:20.870Z,8.10
2023-01-30T09:55:48.924Z,8.10
2023-01-30T09:58:22.669Z,8.10
2023-01-30T10:00:54.602Z,8.10
2023-01-30T10:03:49.206Z,8.10
2023-01-30T10:06:16.881Z,8.10
2023-01-30T10:08:50.316Z,8.20
2023-01-30T10:11:44.164Z,8.20
2023-01-30T10:14:43.238Z,8.30
2023-01-30T10:17:32.852Z,8.30
2023-01-30T10:20:06.692Z,8.40
2023-01-30T10:22:55.889Z,8.50
2023-01-30T10:25:42.639Z,8.50
2023-01-30T10:28:20.336Z,8.50
2023-01-30T10:30:51.812Z,8.50
2023-01-30T10:33:28.768Z,8.50
2023-01-30T10:36:21.312Z,8.50
2023-01-30T10:38:51.312Z,8.50
2023-01-30T10:41:31.136Z,8.50
2023-01-30T10:44:06.142Z,8.60
2023-01-30T10:46:48.776Z,8.50
2023-01-30T10:49:25.182Z,8.60
2023-01-30T10:52:07.623Z,8.60
2023-01-30T10:54:40.602Z,8.60
2023-01-30T10:57:24.405Z,8.60
2023-01-30T11:00:10.005Z,8.60
2023-01-30T11:03:00.078Z,8.60
2023-01-30T11:05:41.662Z,8.60
2023-01-30T11:08:21.533Z,8.60
2023-01-30T11:10:49.476Z,8.60
2023-01-30T11:13:33.952Z,8.50
2023-01-30T11:16:06.910Z,8.50
2023-01-30T11:21:43.511Z,8.50
2023-01-30T11:24:29.532Z,8.50
2023-01-30T11:27:16.391Z,8.50
2023-01-30T11:29:44.285Z,8.50
2023-01-30T11:32:22.871Z,8.50
2023-01-30T11:35:09.000Z,8.50
2023-01-30T11:37:39.332Z,8.50
2023-01-30T11:40:18.871Z,8.50
2023-01-30T11:42:49.408Z,8.50
2023-01-30T11:45:18.815Z,8.40
2023-01-30T11:48:04.731Z,8.40
2023-01-30T11:50:58.349Z,8.40
2023-01-30T11:53:34.257Z,8.50
2023-01-30T11:56:14.753Z,8.50
2023-01-30T11:58:46.324Z,8.60
2023-01-30T12:01:16.231Z,8.60
2023-01-30T12:03:48.614Z,8.60
2023-01-30T12:06:25.718Z,8.70
2023-01-30T12:08:54.790Z,8.60
2023-01-30T12:11:29.007Z,8.70
2023-01-30T12:14:19.266Z,8.70
2023-01-30T12:17:21.577Z,8.70
2023-01-30T12:20:16.230Z,8.70
2023-01-30T12:23:27.893Z,8.70
2023-01-30T12:25:58.575Z,8.70
2023-01-30T12:28:39.434Z,8.70
2023-01-30T12:31:25.816Z,8.70
2023-01-30T12:33:55.332Z,8.70
2023-01-30T12:36:50.662Z,8.60
2023-01-30T12:39:42.443Z,8.70
2023-01-30T12:42:27.406Z,8.60
2023-01-30T12:44:57.473Z,8.60
2023-01-30T12:47:44.169Z,8.60
2023-01-30T12:50:23.745Z,8.60
2023-01-30T12:53:12.999Z,8.60
2023-01-30T12:55:59.830Z,8.60
2023-01-30T12:58:33.093Z,8.60
2023-01-30T13:01:06.623Z,8.60
2023-01-30T13:04:05.974Z,8.70
2023-01-30T13:06:56.918Z,8.80
2023-01-30T13:09:47.582Z,8.90
2023-01-30T13:12:31.144Z,9.00
2023-01-30T13:15:38.683Z,9.10
2023-01-30T13:18:27.829Z,9.10
2023-01-30T13:21:21.122Z,9.10
2023-01-30T13:24:14.416Z,9.10
2023-01-30T13:26:44.068Z,9.10
2023-01-30T13:29:36.499Z,9.10
2023-01-30T13:32:11.194Z,9.10
2023-01-30T13:34:44.955Z,9.00
2023-01-30T13:37:15.281Z,9.10
2023-01-30T13:39:59.568Z,9.00
2023-01-30T13:42:44.299Z,9.00
2023-01-30T13:45:18.370Z,9.00
2023-01-30T13:48:07.389Z,8.90
2023-01-30T13:51:12.389Z,8.90
2023-01-30T13:54:02.710Z,9.00
2023-01-30T13:56:48.008Z,8.90
2023-01-30T13:59:59.981Z,8.90
2023-01-30T14:02:27.539Z,8.90
2023-01-30T14:04:56.826Z,8.80
2023-01-30T14:07:38.668Z,8.90
2023-01-30T14:10:10.139Z,8.80
2023-01-30T14:12:52.425Z,8.80
2023-01-30T14:15:28.812Z,8.80
2023-01-30T14:18:02.620Z,8.90
2023-01-30T14:20:40.866Z,8.90
2023-01-30T14:23:22.062Z,8.90
2023-01-30T14:25:56.518Z,8.90
2023-01-30T14:28:23.939Z,9.00
2023-01-30T14:30:53.381Z,9.00
2023-01-30T14:33:23.778Z,9.00
2023-01-30T14:36:06.253Z,9.00
2023-01-30T14:38:36.052Z,9.00
2023-01-30T14:41:03.248Z,8.90
2023-01-30T14:43:42.435Z,8.90
2023-01-30T14:46:18.704Z,9.00
2023-01-30T14:48:46.972Z,9.00
2023-01-30T14:51:32.067Z,9.00
2023-01-30T14:54:14.442Z,9.00
2023-01-30T14:56:55.869Z,9.00
2023-01-30T14:59:40.216Z,9.00
2023-01-30T15:02:13.516Z,9.00
2023-01-30T15:04:46.972Z,9.00
2023-01-30T15:07:17.378Z,9.00
2023-01-30T15:09:53.310Z,9.00
2023-01-30T15:12:47.576Z,8.90
2023-01-30T15:15:43.693Z,8.90
2023-01-30T15:18:38.324Z,9.00
2023-01-30T15:21:11.768Z,9.00
2023-01-30T15:24:08.275Z,8.90
2023-01-30T15:27:07.012Z,8.90
2023-01-30T15:29:52.994Z,8.90
2023-01-30T15:32:26.608Z,8.80
2023-01-30T15:35:01.751Z,8.70
2023-01-30T15:37:29.983Z,8.70
2023-01-30T15:40:32.700Z,8.60
2023-01-30T15:43:41.717Z,8.60
2023-01-30T15:46:45.360Z,8.60
2023-01-30T15:49:31.025Z,8.60
2023-01-30T15:52:03.174Z,8.60
2023-01-30T15:54:30.456Z,8.60
2023-01-30T15:56:59.846Z,8.60
2023-01-30T15:59:29.324Z,8.50
2023-01-30T16:02:02.839Z,8.50
2023-01-30T16:04:30.474Z,8.50
2023-01-30T16:06:57.974Z,8.50
2023-01-30T16:09:25.913Z,8.50
2023-01-30T16:11:53.353Z,8.50
2023-01-30T16:14:22.175Z,8.50
2023-01-30T16:16:54.865Z,8.50
2023-01-30T16:19:29.459Z,8.50
2023-01-30T16:22:15.729Z,8.50
2023-01-30T16:24:47.651Z,8.40
2023-01-30T16:27:23.997Z,8.30
2023-01-30T16:29:55.523Z,8.20
2023-01-30T16:32:31.821Z,8.20
2023-01-30T16:35:27.112Z,8.20
2023-01-30T16:37:57.515Z,8.10
2023-01-30T16:40:33.060Z,8.00
2023-01-30T16:43:21.564Z,8.10
2023-01-30T16:45:54.638Z,8.10
2023-01-30T16:48:40.495Z,8.00
2023-01-30T16:51:17.964Z,8.00
2023-01-30T16:54:02.896Z,7.90
2023-01-30T16:56:34.518Z,7.90
2023-01-30T16:59:02.776Z,7.90
2023-01-30T17:01:39.600Z,7.90
2023-01-30T17:04:18.876Z,7.90
2023-01-30T17:06:53.222Z,7.90
2023-01-30T17:09:37.058Z,7.90
2023-01-30T17:12:26.542Z,7.80
2023-01-30T17:15:12.102Z,7.80
2023-01-30T17:17:40.183Z,7.80
2023-01-30T17:20:08.259Z,7.90
2023-01-30T17:22:37.136Z,7.90
2023-01-30T17:25:14.632Z,7.90
2023-01-30T17:27:41.960Z,7.90
2023-01-30T17:30:18.113Z,7.80
2023-01-30T17:32:45.618Z,7.80
2023-01-30T17:35:12.944Z,7.90
2023-01-30T17:37:42.091Z,7.90
2023-01-30T17:40:18.049Z,7.90
2023-01-30T17:42:47.092Z,7.90
2023-01-30T17:45:14.588Z,7.90
2023-01-30T17:47:41.958Z,8.00
2023-01-30T17:50:20.156Z,7.90
2023-01-30T17:52:47.707Z,7.90
2023-01-30T17:55:15.412Z,7.90
2023-01-30T17:57:45.373Z,7.90
2023-01-30T18:00:19.510Z,7.90
2023-01-30T18:02:47.269Z,7.90
2023-01-30T18:05:14.764Z,7.90
2023-01-30T18:07:42.603Z,7.90
2023-01-30T18:10:20.067Z,7.80
2023-01-30T18:12:47.406Z,7.80
2023-01-30T18:15:16.016Z,7.80
2023-01-30T18:17:48.113Z,7.80
2023-01-30T18:20:19.046Z,7.80
2023-01-30T18:22:46.797Z,7.80
2023-01-30T18:25:14.970Z,7.70
2023-01-30T18:27:44.178Z,7.70
2023-01-30T18:30:17.700Z,7.70
2023-01-30T18:32:53.377Z,7.70
2023-01-30T18:35:22.850Z,7.60
2023-01-30T18:37:50.628Z,7.50
2023-01-30T18:40:19.981Z,7.50
2023-01-30T18:42:47.622Z,7.50
2023-01-30T18:45:15.160Z,7.40
2023-01-30T18:47:42.393Z,7.40
2023-01-30T18:50:10.173Z,7.50
2023-01-30T18:52:37.425Z,7.50
2023-01-30T18:55:05.107Z,7.50
2023-01-30T18:57:32.446Z,7.60
2023-01-30T18:59:59.716Z,7.60
2023-01-30T19:02:27.039Z,7.50
2023-01-30T19:04:54.249Z,7.40
2023-01-30T19:07:21.629Z,7.40
2023-01-30T19:09:48.878Z,7.40
2023-01-30T19:12:34.605Z,7.40
2023-01-30T19:15:03.329Z,7.50
2023-01-30T19:17:30.940Z,7.40
2023-01-30T19:20:01.043Z,7.40
2023-01-30T19:22:28.422Z,7.30
2023-01-30T19:24:55.725Z,7.40
2023-01-30T19:27:23.550Z,7.40
2023-01-30T19:29:50.852Z,7.40
2023-01-30T19:32:18.995Z,7.30
2023-01-30T19:34:46.330Z,7.40
2023-01-30T19:37:13.804Z,7.40
2023-01-30T19:39:41.054Z,7.30
2023-01-30T19:42:08.342Z,7.30
2023-01-30T19:44:36.132Z,7.30
2023-01-30T19:47:03.506Z,7.30
2023-01-30T19:49:30.809Z,7.30
2023-01-30T19:52:01.971Z,7.30
2023-01-30T19:54:29.485Z,7.30
2023-01-30T19:56:57.172Z,7.30
2023-01-30T19:59:27.303Z,7.30
2023-01-30T20:01:54.677Z,7.30
2023-01-30T20:04:22.826Z,7.30
2023-01-30T20:06:50.235Z,7.40
2023-01-30T20:09:17.752Z,7.40
2023-01-30T20:11:45.485Z,7.40
2023-01-30T20:14:15.984Z,7.30
2023-01-30T20:16:43.387Z,7.20
2023-01-30T20:19:16.299Z,7.20
2023-01-30T20:21:44.253Z,7.20
2023-01-30T20:24:13.212Z,7.30
2023-01-30T20:26:41.479Z,7.30
2023-01-30T20:29:10.289Z,7.20
2023-01-30T20:31:39.064Z,7.30
2023-01-30T20:34:10.485Z,7.30
2023-01-30T20:36:37.802Z,7.30
2023-01-30T20:39:07.909Z,7.30
2023-01-30T20:41:37.547Z,7.30
2023-01-30T20:44:07.727Z,7.40
2023-01-30T20:46:40.964Z,7.30
2023-01-30T20:49:16.888Z,7.30
2023-01-30T20:51:45.174Z,7.30
2023-01-30T20:54:14.838Z,7.20
2023-01-30T20:56:49.111Z,7.20
2023-01-30T20:59:18.995Z,7.10
2023-01-30T21:01:46.991Z,7.10
2023-01-30T21:04:16.184Z,7.10
2023-01-30T21:06:45.970Z,7.10
2023-01-30T21:09:19.737Z,7.20
2023-01-30T21:11:48.952Z,7.20
2023-01-30T21:14:17.068Z,7.30
2023-01-30T21:16:44.510Z,7.30
2023-01-30T21:19:15.874Z,7.30
2023-01-30T21:21:54.429Z,7.30
2023-01-30T21:24:25.377Z,7.40
2023-01-30T21:26:53.761Z,7.40
2023-01-30T21:29:23.648Z,7.40
2023-01-30T21:31:51.524Z,7.40
2023-01-30T21:34:18.894Z,7.40
2023-01-30T21:37:08.819Z,7.40
2023-01-30T21:40:14.561Z,7.40
2023-01-30T21:43:00.539Z,7.30
2023-01-30T21:45:28.537Z,7.30
2023-01-30T21:47:55.825Z,7.30
2023-01-30T21:50:23.293Z,7.30
2023-01-30T21:52:50.583Z,7.30
2023-01-30T21:55:21.139Z,7.20
2023-01-30T21:57:48.644Z,7.20
2023-01-30T22:00:16.068Z,7.10
2023-01-30T22:02:43.417Z,7.10
2023-01-30T22:05:10.992Z,7.20
2023-01-30T22:07:38.700Z,7.20
2023-01-30T22:10:06.385Z,7.10
2023-01-30T22:12:33.688Z,7.10
2023-01-30T22:15:02.367Z,7.10
2023-01-30T22:17:29.929Z,7.10
2023-01-30T22:19:57.235Z,7.10
2023-01-30T22:22:25.180Z,7.10
2023-01-30T22:24:52.506Z,7.10
2023-01-30T22:27:19.785Z,7.20
2023-01-30T22:29:47.070Z,7.10
2023-01-30T22:32:14.259Z,7.10
2023-01-30T22:34:41.471Z,7.10
2023-01-30T22:37:08.687Z,7.10
2023-01-30T22:39:36.038Z,7.10
2023-01-30T22:42:03.379Z,7.10
2023-01-30T22:44:30.653Z,7.10
2023-01-30T22:46:58.065Z,7.20
2023-01-30T22:49:25.380Z,7.20
2023-01-30T22:51:52.650Z,7.20
2023-01-30T22:54:19.978Z,7.20
2023-01-30T22:56:48.783Z,7.20
2023-01-30T22:59:16.231Z,7.20
2023-01-30T23:01:50.595Z,7.20
2023-01-30T23:04:20.191Z,7.20
2023-01-30T23:06:49.221Z,7.30
2023-01-30T23:09:19.187Z,7.20
2023-01-30T23:12:10.851Z,7.20
2023-01-30T23:14:44.069Z,7.10
2023-01-30T23:17:30.329Z,7.10
2023-01-30T23:19:57.756Z,7.10
2023-01-30T23:22:25.051Z,7.20
2023-01-30T23:24:52.548Z,7.10
2023-01-30T23:27:20.637Z,7.20
2023-01-30T23:29:48.173Z,7.10
2023-01-30T23:32:18.875Z,7.10
2023-01-30T23:34:47.420Z,7.10
2023-01-30T23:37:14.936Z,7.10
2023-01-30T23:39:42.167Z,7.10
2023-01-30T23:42:09.376Z,7.10
2023-01-30T23:44:36.522Z,7.10
2023-01-30T23:47:03.802Z,7.10
2023-01-30T23:49:31.059Z,7.10
2023-01-30T23:51:58.387Z,7.10
2023-01-30T23:54:25.808Z,7.10
2023-01-30T23:56:54.320Z,7.10
2023-01-30T23:59:21.518Z,7.10
